SKU1801 SUMU-SCEL
Flight info
| Callsign | SKU1801 |
|---|---|
| Flight time | 2h 8m |
| Altitude | 30000 |
| Route | DAGUS UL405 TOSOR UT687 UMKAL UMKAL7C |
| Aircraft | A320/M-SDE3FGHIRWY/LB1 |
Departure
| Time | 2026-04-26 00:05 |
|---|---|
| Airport | Carrasco General Cesáreo L. Berisso International Airport (SUMU) |
Arrival
| Time | 2026-04-26 02:14 |
|---|---|
| Airport | Comodoro Arturo Merino Benítez International Airport (SCEL) |
| Time | Latitude | Longitude | Altitude | Speed | Heading |
|---|---|---|---|---|---|
| 2026-04-25 23:44 | -34.83745 | -56.02006 | 87 ft | 0 kts | 142° |
| 2026-04-25 23:56 | -34.83745 | -56.02007 | 86 ft | 2 kts | 142° |
| 2026-04-25 23:56 | -34.83732 | -56.02019 | 84 ft | 2 kts | 143° |
| 2026-04-25 23:57 | -34.83719 | -56.02031 | 87 ft | 2 kts | 143° |
| 2026-04-25 23:57 | -34.83705 | -56.02043 | 86 ft | 2 kts | 143° |
| 2026-04-25 23:57 | -34.83694 | -56.02057 | 87 ft | 2 kts | 111° |
| 2026-04-25 23:57 | -34.83690 | -56.02077 | 83 ft | 2 kts | 78° |
| 2026-04-25 23:58 | -34.83694 | -56.02091 | 87 ft | 1 kts | 57° |
| 2026-04-25 23:58 | -34.83694 | -56.02093 | 95 ft | 0 kts | 55° |
| 2026-04-25 23:58 | -34.83694 | -56.02092 | 95 ft | 0 kts | 55° |
| 2026-04-26 00:00 | -34.83667 | -56.02049 | 90 ft | 11 kts | 51° |
| 2026-04-26 00:00 | -34.83618 | -56.01969 | 85 ft | 13 kts | 54° |
| 2026-04-26 00:00 | -34.83565 | -56.01880 | 86 ft | 5 kts | 53° |
| 2026-04-26 00:01 | -34.83552 | -56.01859 | 82 ft | 8 kts | 53° |
| 2026-04-26 00:01 | -34.83509 | -56.01789 | 85 ft | 12 kts | 53° |
| 2026-04-26 00:01 | -34.83433 | -56.01776 | 84 ft | 13 kts | 329° |
| 2026-04-26 00:01 | -34.83352 | -56.01842 | 86 ft | 15 kts | 330° |
| 2026-04-26 00:02 | -34.83267 | -56.01809 | 83 ft | 10 kts | 54° |
| 2026-04-26 00:02 | -34.83225 | -56.01735 | 84 ft | 12 kts | 53° |
| 2026-04-26 00:02 | -34.83173 | -56.01649 | 86 ft | 14 kts | 53° |
| 2026-04-26 00:02 | -34.83112 | -56.01551 | 82 ft | 16 kts | 53° |
| 2026-04-26 00:03 | -34.83044 | -56.01439 | 85 ft | 17 kts | 53° |
| 2026-04-26 00:03 | -34.82969 | -56.01315 | 84 ft | 19 kts | 53° |
| 2026-04-26 00:03 | -34.82886 | -56.01179 | 82 ft | 21 kts | 52° |
| 2026-04-26 00:03 | -34.82782 | -56.01142 | 84 ft | 16 kts | 353° |
| 2026-04-26 00:04 | -34.82711 | -56.01223 | 83 ft | 17 kts | 261° |
| 2026-04-26 00:04 | -34.82795 | -56.01370 | 83 ft | 41 kts | 233° |
| 2026-04-26 00:04 | -34.83103 | -56.01875 | 86 ft | 104 kts | 233° |
| 2026-04-26 00:04 | -34.83630 | -56.02740 | 84 ft | 152 kts | 233° |
| 2026-04-26 00:05 | -34.84308 | -56.03857 | 354 ft | 167 kts | 233° |
| 2026-04-26 00:05 | -34.84994 | -56.05009 | 845 ft | 168 kts | 235° |
| 2026-04-26 00:05 | -34.85681 | -56.06169 | 1320 ft | 174 kts | 235° |
| 2026-04-26 00:05 | -34.86445 | -56.07435 | 1507 ft | 197 kts | 235° |
| 2026-04-26 00:06 | -34.87304 | -56.08849 | 1709 ft | 219 kts | 236° |
| 2026-04-26 00:06 | -34.87966 | -56.10587 | 1950 ft | 238 kts | 261° |
| 2026-04-26 00:06 | -34.88261 | -56.12670 | 2308 ft | 259 kts | 262° |
| 2026-04-26 00:06 | -34.88556 | -56.14867 | 3060 ft | 266 kts | 262° |
| 2026-04-26 00:07 | -34.88849 | -56.17067 | 3892 ft | 268 kts | 262° |
| 2026-04-26 00:07 | -34.89148 | -56.19318 | 4777 ft | 270 kts | 262° |
| 2026-04-26 00:07 | -34.89451 | -56.21579 | 5636 ft | 271 kts | 261° |
| 2026-04-26 00:07 | -34.89757 | -56.23847 | 6491 ft | 272 kts | 261° |
| 2026-04-26 00:08 | -34.90067 | -56.26132 | 7276 ft | 274 kts | 261° |
| 2026-04-26 00:08 | -34.90378 | -56.28436 | 8043 ft | 277 kts | 262° |
| 2026-04-26 00:08 | -34.90689 | -56.30763 | 8812 ft | 280 kts | 262° |
| 2026-04-26 00:08 | -34.91005 | -56.33107 | 9577 ft | 282 kts | 262° |
| 2026-04-26 00:09 | -34.91320 | -56.35449 | 10257 ft | 287 kts | 262° |
| 2026-04-26 00:09 | -34.91651 | -56.37935 | 10461 ft | 309 kts | 262° |
| 2026-04-26 00:09 | -34.92002 | -56.40606 | 10586 ft | 330 kts | 262° |
| 2026-04-26 00:09 | -34.92378 | -56.43454 | 10824 ft | 347 kts | 262° |
| 2026-04-26 00:10 | -34.92769 | -56.46382 | 11367 ft | 353 kts | 262° |
| 2026-04-26 00:10 | -34.93165 | -56.49343 | 11994 ft | 355 kts | 261° |
| 2026-04-26 00:10 | -34.93563 | -56.52328 | 12631 ft | 358 kts | 261° |
| 2026-04-26 00:10 | -34.93960 | -56.55292 | 13264 ft | 360 kts | 261° |
| 2026-04-26 00:11 | -34.94363 | -56.58316 | 13893 ft | 362 kts | 261° |
| 2026-04-26 00:11 | -34.94765 | -56.61351 | 14464 ft | 364 kts | 261° |
| 2026-04-26 00:11 | -34.95165 | -56.64404 | 15041 ft | 365 kts | 262° |
| 2026-04-26 00:11 | -34.95563 | -56.67462 | 15622 ft | 366 kts | 262° |
| 2026-04-26 00:12 | -34.95962 | -56.70531 | 16212 ft | 367 kts | 262° |
| 2026-04-26 00:12 | -34.96360 | -56.73609 | 16812 ft | 368 kts | 262° |
| 2026-04-26 00:12 | -34.96759 | -56.76700 | 17416 ft | 370 kts | 262° |
| 2026-04-26 00:12 | -34.97153 | -56.79758 | 18028 ft | 371 kts | 262° |
| 2026-04-26 00:13 | -34.97556 | -56.82874 | 18609 ft | 373 kts | 262° |
| 2026-04-26 00:13 | -34.97961 | -56.85998 | 19142 ft | 374 kts | 262° |
| 2026-04-26 00:13 | -34.98261 | -56.89151 | 19664 ft | 375 kts | 269° |
| 2026-04-26 00:13 | -34.98267 | -56.92342 | 20197 ft | 377 kts | 271° |
| 2026-04-26 00:14 | -34.98255 | -56.95546 | 20701 ft | 378 kts | 271° |
| 2026-04-26 00:14 | -34.98243 | -56.98758 | 21177 ft | 380 kts | 271° |
| 2026-04-26 00:14 | -34.98227 | -57.01991 | 21636 ft | 382 kts | 271° |
| 2026-04-26 00:14 | -34.98207 | -57.05236 | 22076 ft | 384 kts | 271° |
| 2026-04-26 00:15 | -34.98191 | -57.08453 | 22500 ft | 385 kts | 271° |
| 2026-04-26 00:15 | -34.98174 | -57.11727 | 22919 ft | 387 kts | 271° |
| 2026-04-26 00:15 | -34.98159 | -57.15018 | 23327 ft | 389 kts | 271° |
| 2026-04-26 00:15 | -34.98145 | -57.18326 | 23702 ft | 391 kts | 271° |
| 2026-04-26 00:16 | -34.98132 | -57.21647 | 24037 ft | 393 kts | 271° |
| 2026-04-26 00:16 | -34.98118 | -57.24983 | 24365 ft | 394 kts | 271° |
| 2026-04-26 00:16 | -34.98099 | -57.28330 | 24688 ft | 396 kts | 271° |
| 2026-04-26 00:16 | -34.98079 | -57.31691 | 25005 ft | 397 kts | 271° |
| 2026-04-26 00:17 | -34.98058 | -57.35016 | 25324 ft | 398 kts | 271° |
| 2026-04-26 00:17 | -34.98038 | -57.38397 | 25644 ft | 400 kts | 271° |
| 2026-04-26 00:17 | -34.98015 | -57.41793 | 25964 ft | 401 kts | 271° |
| 2026-04-26 00:17 | -34.97991 | -57.45194 | 26349 ft | 401 kts | 271° |
| 2026-04-26 00:18 | -34.97967 | -57.48580 | 26816 ft | 398 kts | 271° |
| 2026-04-26 00:18 | -34.97942 | -57.51945 | 27289 ft | 396 kts | 271° |
| 2026-04-26 00:18 | -34.97914 | -57.55291 | 27760 ft | 394 kts | 271° |
| 2026-04-26 00:18 | -34.97885 | -57.58622 | 28240 ft | 392 kts | 271° |
| 2026-04-26 00:19 | -34.97858 | -57.61890 | 28727 ft | 390 kts | 271° |
| 2026-04-26 00:19 | -34.97832 | -57.65181 | 29201 ft | 388 kts | 271° |
| 2026-04-26 00:19 | -34.97805 | -57.68463 | 29691 ft | 386 kts | 271° |
| 2026-04-26 00:19 | -34.97774 | -57.71727 | 29943 ft | 385 kts | 271° |
| 2026-04-26 00:20 | -34.97739 | -57.75030 | 29955 ft | 393 kts | 271° |
| 2026-04-26 00:20 | -34.97668 | -57.81777 | 29947 ft | 400 kts | 271° |
| 2026-04-26 00:21 | -34.97561 | -57.88523 | 29944 ft | 401 kts | 275° |
| 2026-04-26 00:21 | -34.96343 | -57.95151 | 29947 ft | 402 kts | 284° |
| 2026-04-26 00:22 | -34.94789 | -58.01695 | 29949 ft | 402 kts | 284° |
| 2026-04-26 00:22 | -34.93238 | -58.08230 | 29965 ft | 401 kts | 284° |
| 2026-04-26 00:23 | -34.91697 | -58.14720 | 29985 ft | 401 kts | 284° |
| 2026-04-26 00:23 | -34.90141 | -58.21246 | 30002 ft | 401 kts | 284° |
| 2026-04-26 00:24 | -34.88595 | -58.27768 | 30006 ft | 401 kts | 284° |
| 2026-04-26 00:24 | -34.87040 | -58.34275 | 29992 ft | 400 kts | 284° |
| 2026-04-26 00:25 | -34.85488 | -58.40737 | 29989 ft | 400 kts | 284° |
| 2026-04-26 00:25 | -34.83925 | -58.47233 | 29979 ft | 400 kts | 284° |
| 2026-04-26 00:26 | -34.82421 | -58.53739 | 29983 ft | 398 kts | 280° |
| 2026-04-26 00:26 | -34.81660 | -58.60414 | 29984 ft | 398 kts | 277° |
| 2026-04-26 00:27 | -34.80946 | -58.67047 | 29991 ft | 398 kts | 277° |
| 2026-04-26 00:27 | -34.80213 | -58.73721 | 29986 ft | 398 kts | 277° |
| 2026-04-26 00:28 | -34.79482 | -58.80386 | 30002 ft | 397 kts | 277° |
| 2026-04-26 00:28 | -34.78751 | -58.87046 | 30007 ft | 397 kts | 277° |
| 2026-04-26 00:29 | -34.78016 | -58.93662 | 30013 ft | 397 kts | 277° |
| 2026-04-26 00:29 | -34.77274 | -59.00310 | 30016 ft | 397 kts | 277° |
| 2026-04-26 00:29 | -34.76903 | -59.03632 | 30176 ft | 396 kts | 277° |
| 2026-04-26 00:30 | -34.76532 | -59.06929 | 30106 ft | 390 kts | 277° |
| 2026-04-26 00:30 | -34.75800 | -59.13407 | 29999 ft | 385 kts | 277° |
| 2026-04-26 00:31 | -34.75076 | -59.19816 | 29995 ft | 385 kts | 277° |
| 2026-04-26 00:31 | -34.74342 | -59.26268 | 29995 ft | 385 kts | 277° |
| 2026-04-26 00:32 | -34.73607 | -59.32725 | 29992 ft | 386 kts | 277° |
| 2026-04-26 00:32 | -34.72495 | -59.42410 | 29986 ft | 386 kts | 277° |
| 2026-04-26 00:33 | -34.71749 | -59.48827 | 29987 ft | 386 kts | 277° |
| 2026-04-26 00:33 | -34.70999 | -59.55284 | 29992 ft | 386 kts | 277° |
| 2026-04-26 00:34 | -34.70246 | -59.61742 | 29997 ft | 386 kts | 277° |
| 2026-04-26 00:34 | -34.69488 | -59.68207 | 29994 ft | 386 kts | 277° |
| 2026-04-26 00:35 | -34.68734 | -59.74626 | 29999 ft | 386 kts | 277° |
| 2026-04-26 00:35 | -34.67974 | -59.81085 | 30000 ft | 386 kts | 277° |
| 2026-04-26 00:36 | -34.67203 | -59.87542 | 30007 ft | 386 kts | 277° |
| 2026-04-26 00:36 | -34.66430 | -59.93998 | 30006 ft | 386 kts | 277° |
| 2026-04-26 00:37 | -34.65663 | -60.00410 | 30003 ft | 386 kts | 277° |
| 2026-04-26 00:37 | -34.64886 | -60.06859 | 30006 ft | 386 kts | 277° |
| 2026-04-26 00:38 | -34.64102 | -60.13309 | 30000 ft | 386 kts | 277° |
| 2026-04-26 00:38 | -34.63322 | -60.19753 | 30001 ft | 386 kts | 277° |
| 2026-04-26 00:39 | -34.62539 | -60.26144 | 30003 ft | 386 kts | 277° |
| 2026-04-26 00:39 | -34.61746 | -60.32585 | 30002 ft | 386 kts | 277° |
| 2026-04-26 00:40 | -34.60952 | -60.39023 | 30005 ft | 386 kts | 277° |
| 2026-04-26 00:40 | -34.60158 | -60.45458 | 30005 ft | 385 kts | 277° |
| 2026-04-26 00:41 | -34.59362 | -60.51891 | 30006 ft | 385 kts | 277° |
| 2026-04-26 00:41 | -34.58562 | -60.58270 | 30004 ft | 385 kts | 277° |
| 2026-04-26 00:42 | -34.57751 | -60.64698 | 30005 ft | 385 kts | 277° |
| 2026-04-26 00:42 | -34.56940 | -60.71121 | 30007 ft | 385 kts | 277° |
| 2026-04-26 00:43 | -34.56133 | -60.77543 | 30011 ft | 385 kts | 277° |
| 2026-04-26 00:43 | -34.55319 | -60.83918 | 30010 ft | 385 kts | 277° |
| 2026-04-26 00:44 | -34.54500 | -60.90332 | 30010 ft | 385 kts | 277° |
| 2026-04-26 00:44 | -34.53651 | -60.96741 | 30012 ft | 385 kts | 278° |
| 2026-04-26 00:45 | -34.52834 | -61.02042 | 30005 ft | 385 kts | 279° |
| 2026-04-26 00:45 | -34.51641 | -61.09445 | 30006 ft | 385 kts | 279° |
| 2026-04-26 00:46 | -34.50644 | -61.15813 | 30006 ft | 384 kts | 278° |
| 2026-04-26 00:46 | -34.49655 | -61.22180 | 30006 ft | 384 kts | 278° |
| 2026-04-26 00:47 | -34.48664 | -61.28543 | 30005 ft | 384 kts | 278° |
| 2026-04-26 00:47 | -34.47671 | -61.34905 | 30010 ft | 384 kts | 278° |
| 2026-04-26 00:48 | -34.46675 | -61.41220 | 30014 ft | 384 kts | 278° |
| 2026-04-26 00:48 | -34.45670 | -61.47545 | 30009 ft | 384 kts | 278° |
| 2026-04-26 00:49 | -34.44664 | -61.53901 | 30019 ft | 384 kts | 278° |
| 2026-04-26 00:49 | -34.43660 | -61.60257 | 30014 ft | 384 kts | 278° |
| 2026-04-26 00:50 | -34.42645 | -61.66564 | 30013 ft | 384 kts | 279° |
| 2026-04-26 00:50 | -34.41623 | -61.72909 | 30009 ft | 384 kts | 278° |
| 2026-04-26 00:51 | -34.40599 | -61.79250 | 30008 ft | 384 kts | 279° |
| 2026-04-26 00:51 | -34.39576 | -61.85542 | 30005 ft | 383 kts | 279° |
| 2026-04-26 00:52 | -34.38545 | -61.91876 | 30007 ft | 383 kts | 279° |
| 2026-04-26 00:52 | -34.37512 | -61.98205 | 30004 ft | 383 kts | 278° |
| 2026-04-26 00:53 | -34.36476 | -62.04530 | 30006 ft | 383 kts | 279° |
| 2026-04-26 00:53 | -34.35445 | -62.10808 | 30000 ft | 383 kts | 279° |
| 2026-04-26 00:54 | -34.34406 | -62.17133 | 30004 ft | 383 kts | 279° |
| 2026-04-26 00:54 | -34.33367 | -62.23465 | 30003 ft | 383 kts | 279° |
| 2026-04-26 00:55 | -34.32318 | -62.29783 | 30004 ft | 383 kts | 279° |
| 2026-04-26 00:55 | -34.31265 | -62.36065 | 30003 ft | 384 kts | 279° |
| 2026-04-26 00:56 | -34.30232 | -62.42259 | 30005 ft | 384 kts | 279° |
| 2026-04-26 00:56 | -34.29172 | -62.48583 | 30002 ft | 384 kts | 279° |
| 2026-04-26 00:57 | -34.28101 | -62.54909 | 30007 ft | 384 kts | 279° |
| 2026-04-26 00:57 | -34.27031 | -62.61235 | 30006 ft | 384 kts | 279° |
| 2026-04-26 00:58 | -34.25976 | -62.67524 | 30007 ft | 384 kts | 279° |
| 2026-04-26 00:58 | -34.24903 | -62.73856 | 30006 ft | 384 kts | 279° |
| 2026-04-26 00:59 | -34.23818 | -62.80181 | 30008 ft | 384 kts | 279° |
| 2026-04-26 00:59 | -34.22735 | -62.86505 | 30009 ft | 384 kts | 279° |
| 2026-04-26 01:00 | -34.21659 | -62.92784 | 30004 ft | 384 kts | 279° |
| 2026-04-26 01:00 | -34.20577 | -62.99107 | 30023 ft | 384 kts | 279° |
| 2026-04-26 01:01 | -34.19480 | -63.05429 | 30009 ft | 384 kts | 279° |
| 2026-04-26 01:01 | -34.18387 | -63.11745 | 30017 ft | 384 kts | 279° |
| 2026-04-26 01:02 | -34.17295 | -63.18024 | 30016 ft | 385 kts | 279° |
| 2026-04-26 01:02 | -34.16196 | -63.24345 | 30018 ft | 385 kts | 279° |
| 2026-04-26 01:03 | -34.15093 | -63.30668 | 30017 ft | 385 kts | 279° |
| 2026-04-26 01:03 | -34.13987 | -63.36987 | 30022 ft | 385 kts | 279° |
| 2026-04-26 01:04 | -34.12990 | -63.42224 | 30021 ft | 385 kts | 280° |
| 2026-04-26 01:04 | -34.11518 | -63.49529 | 30034 ft | 385 kts | 280° |
| 2026-04-26 01:05 | -34.10264 | -63.55814 | 30034 ft | 386 kts | 280° |
| 2026-04-26 01:05 | -34.09230 | -63.61024 | 30030 ft | 386 kts | 280° |
| 2026-04-26 01:06 | -34.07986 | -63.67314 | 30030 ft | 386 kts | 280° |
| 2026-04-26 01:06 | -34.06528 | -63.74616 | 30025 ft | 386 kts | 280° |
| 2026-04-26 01:07 | -34.05269 | -63.80903 | 30027 ft | 385 kts | 280° |
| 2026-04-26 01:07 | -34.04226 | -63.86126 | 30020 ft | 385 kts | 280° |
| 2026-04-26 01:08 | -34.02979 | -63.92410 | 30028 ft | 385 kts | 280° |
| 2026-04-26 01:08 | -34.01725 | -63.98696 | 30023 ft | 385 kts | 280° |
| 2026-04-26 01:09 | -34.00459 | -64.04972 | 30026 ft | 386 kts | 280° |
| 2026-04-26 01:09 | -33.99202 | -64.11207 | 30019 ft | 386 kts | 280° |
| 2026-04-26 01:10 | -33.97942 | -64.17490 | 30029 ft | 386 kts | 280° |
| 2026-04-26 01:10 | -33.96672 | -64.23770 | 30030 ft | 386 kts | 280° |
| 2026-04-26 01:11 | -33.95395 | -64.30052 | 30030 ft | 386 kts | 280° |
| 2026-04-26 01:11 | -33.94123 | -64.36286 | 30030 ft | 386 kts | 280° |
| 2026-04-26 01:12 | -33.92838 | -64.42558 | 30028 ft | 386 kts | 280° |
| 2026-04-26 01:12 | -33.91550 | -64.48840 | 30034 ft | 386 kts | 280° |
| 2026-04-26 01:13 | -33.90352 | -64.55130 | 30037 ft | 385 kts | 278° |
| 2026-04-26 01:13 | -33.89359 | -64.61455 | 30034 ft | 385 kts | 277° |
| 2026-04-26 01:14 | -33.88389 | -64.67749 | 30040 ft | 385 kts | 278° |
| 2026-04-26 01:14 | -33.87359 | -64.74071 | 30040 ft | 385 kts | 278° |
| 2026-04-26 01:15 | -33.86303 | -64.80391 | 30040 ft | 385 kts | 278° |
| 2026-04-26 01:15 | -33.85248 | -64.86707 | 30042 ft | 385 kts | 278° |
| 2026-04-26 01:16 | -33.84202 | -64.92991 | 30050 ft | 385 kts | 278° |
| 2026-04-26 01:16 | -33.83145 | -64.99306 | 30049 ft | 385 kts | 278° |
| 2026-04-26 01:17 | -33.82086 | -65.05628 | 30048 ft | 385 kts | 278° |
| 2026-04-26 01:17 | -33.81027 | -65.11943 | 30051 ft | 385 kts | 278° |
| 2026-04-26 01:18 | -33.79972 | -65.18218 | 30044 ft | 386 kts | 278° |
| 2026-04-26 01:18 | -33.78902 | -65.24539 | 30049 ft | 386 kts | 278° |
| 2026-04-26 01:19 | -33.77827 | -65.30855 | 30049 ft | 386 kts | 278° |
| 2026-04-26 01:19 | -33.76746 | -65.37176 | 30041 ft | 386 kts | 278° |
| 2026-04-26 01:20 | -33.75670 | -65.43454 | 30044 ft | 386 kts | 278° |
| 2026-04-26 01:20 | -33.74590 | -65.49784 | 30042 ft | 387 kts | 278° |
| 2026-04-26 01:21 | -33.73503 | -65.56118 | 30041 ft | 387 kts | 278° |
| 2026-04-26 01:21 | -33.72414 | -65.62420 | 30048 ft | 388 kts | 278° |
| 2026-04-26 01:22 | -33.71321 | -65.68718 | 30048 ft | 388 kts | 278° |
| 2026-04-26 01:22 | -33.70216 | -65.75065 | 30045 ft | 388 kts | 278° |
| 2026-04-26 01:23 | -33.69115 | -65.81407 | 30047 ft | 388 kts | 278° |
| 2026-04-26 01:23 | -33.68018 | -65.87716 | 30047 ft | 388 kts | 278° |
| 2026-04-26 01:24 | -33.66904 | -65.94062 | 30049 ft | 389 kts | 278° |
| 2026-04-26 01:24 | -33.65789 | -66.00405 | 30046 ft | 389 kts | 278° |
| 2026-04-26 01:25 | -33.64667 | -66.06750 | 30052 ft | 389 kts | 278° |
| 2026-04-26 01:25 | -33.63541 | -66.13093 | 30056 ft | 388 kts | 278° |
| 2026-04-26 01:26 | -33.62418 | -66.19385 | 30055 ft | 388 kts | 278° |
| 2026-04-26 01:26 | -33.61293 | -66.25723 | 30055 ft | 388 kts | 278° |
| 2026-04-26 01:27 | -33.60163 | -66.32060 | 30056 ft | 388 kts | 278° |
| 2026-04-26 01:27 | -33.59034 | -66.38371 | 30049 ft | 388 kts | 278° |
| 2026-04-26 01:28 | -33.57900 | -66.44657 | 30050 ft | 388 kts | 278° |
| 2026-04-26 01:28 | -33.56762 | -66.50982 | 30047 ft | 388 kts | 278° |
| 2026-04-26 01:29 | -33.55622 | -66.57309 | 30046 ft | 388 kts | 278° |
| 2026-04-26 01:29 | -33.54469 | -66.63635 | 30046 ft | 388 kts | 278° |
| 2026-04-26 01:30 | -33.53326 | -66.69914 | 30044 ft | 388 kts | 278° |
| 2026-04-26 01:30 | -33.52172 | -66.76231 | 30049 ft | 388 kts | 278° |
| 2026-04-26 01:31 | -33.51013 | -66.82552 | 30044 ft | 388 kts | 278° |
| 2026-04-26 01:31 | -33.49847 | -66.88866 | 30046 ft | 388 kts | 278° |
| 2026-04-26 01:32 | -33.48695 | -66.95138 | 30043 ft | 388 kts | 278° |
| 2026-04-26 01:32 | -33.47536 | -67.01452 | 30041 ft | 388 kts | 278° |
| 2026-04-26 01:33 | -33.46369 | -67.07760 | 30047 ft | 388 kts | 278° |
| 2026-04-26 01:33 | -33.45194 | -67.14056 | 30051 ft | 387 kts | 278° |
| 2026-04-26 01:34 | -33.44013 | -67.20348 | 30051 ft | 387 kts | 278° |
| 2026-04-26 01:34 | -33.42848 | -67.26591 | 30050 ft | 387 kts | 278° |
| 2026-04-26 01:35 | -33.41674 | -67.32869 | 30053 ft | 386 kts | 278° |
| 2026-04-26 01:35 | -33.40497 | -67.39138 | 30054 ft | 386 kts | 278° |
| 2026-04-26 01:36 | -33.39317 | -67.45398 | 30051 ft | 386 kts | 278° |
| 2026-04-26 01:37 | -33.37548 | -67.54735 | 30055 ft | 385 kts | 278° |
| 2026-04-26 01:37 | -33.36363 | -67.60974 | 30053 ft | 385 kts | 278° |
| 2026-04-26 01:38 | -33.35172 | -67.67206 | 30050 ft | 384 kts | 278° |
| 2026-04-26 01:38 | -33.33986 | -67.73392 | 30056 ft | 384 kts | 278° |
| 2026-04-26 01:39 | -33.32798 | -67.79615 | 30048 ft | 384 kts | 278° |
| 2026-04-26 01:39 | -33.31612 | -67.85836 | 30054 ft | 384 kts | 278° |
| 2026-04-26 01:40 | -33.30410 | -67.92053 | 30041 ft | 384 kts | 278° |
| 2026-04-26 01:40 | -33.29205 | -67.98275 | 30044 ft | 384 kts | 278° |
| 2026-04-26 01:41 | -33.28006 | -68.04453 | 30038 ft | 384 kts | 278° |
| 2026-04-26 01:41 | -33.26790 | -68.10673 | 30047 ft | 384 kts | 278° |
| 2026-04-26 01:42 | -33.25579 | -68.16892 | 30038 ft | 385 kts | 278° |
| 2026-04-26 01:42 | -33.24367 | -68.23117 | 30038 ft | 385 kts | 278° |
| 2026-04-26 01:43 | -33.23157 | -68.29300 | 30028 ft | 385 kts | 278° |
| 2026-04-26 01:43 | -33.21936 | -68.35530 | 30038 ft | 385 kts | 278° |
| 2026-04-26 01:44 | -33.20708 | -68.41755 | 30028 ft | 386 kts | 278° |
| 2026-04-26 01:44 | -33.19481 | -68.47946 | 30030 ft | 386 kts | 278° |
| 2026-04-26 01:45 | -33.18243 | -68.54181 | 30028 ft | 386 kts | 278° |
| 2026-04-26 01:45 | -33.17004 | -68.60419 | 30031 ft | 387 kts | 278° |
| 2026-04-26 01:46 | -33.15759 | -68.66669 | 30032 ft | 387 kts | 278° |
| 2026-04-26 01:46 | -33.14509 | -68.72921 | 30029 ft | 388 kts | 278° |
| 2026-04-26 01:47 | -33.13265 | -68.79137 | 30031 ft | 388 kts | 278° |
| 2026-04-26 01:47 | -33.12004 | -68.85405 | 30029 ft | 389 kts | 278° |
| 2026-04-26 01:48 | -33.10732 | -68.91685 | 30031 ft | 390 kts | 278° |
| 2026-04-26 01:48 | -33.09470 | -68.97926 | 30027 ft | 390 kts | 278° |
| 2026-04-26 01:49 | -33.08203 | -69.04220 | 30026 ft | 391 kts | 278° |
| 2026-04-26 01:49 | -33.06925 | -69.10519 | 30022 ft | 391 kts | 278° |
| 2026-04-26 01:50 | -33.05630 | -69.16831 | 30032 ft | 392 kts | 278° |
| 2026-04-26 01:50 | -33.04347 | -69.23097 | 30047 ft | 392 kts | 278° |
| 2026-04-26 01:51 | -33.03055 | -69.29412 | 30060 ft | 393 kts | 278° |
| 2026-04-26 01:51 | -33.01754 | -69.35727 | 30091 ft | 392 kts | 279° |
| 2026-04-26 01:52 | -33.00449 | -69.42041 | 30126 ft | 392 kts | 279° |
| 2026-04-26 01:52 | -32.99143 | -69.48287 | 30171 ft | 391 kts | 279° |
| 2026-04-26 01:53 | -32.97846 | -69.54560 | 30201 ft | 389 kts | 279° |
| 2026-04-26 01:53 | -32.96552 | -69.60812 | 30221 ft | 388 kts | 278° |
| 2026-04-26 01:54 | -32.95259 | -69.67036 | 30248 ft | 387 kts | 279° |
| 2026-04-26 01:54 | -32.93968 | -69.73232 | 30273 ft | 384 kts | 279° |
| 2026-04-26 01:55 | -32.92688 | -69.79327 | 30279 ft | 377 kts | 278° |
| 2026-04-26 01:55 | -32.92059 | -69.82295 | 30204 ft | 363 kts | 278° |
| 2026-04-26 01:55 | -32.91452 | -69.85152 | 30059 ft | 350 kts | 278° |
| 2026-04-26 01:55 | -32.90867 | -69.87914 | 29917 ft | 338 kts | 278° |
| 2026-04-26 01:56 | -32.90302 | -69.90588 | 29747 ft | 329 kts | 278° |
| 2026-04-26 01:56 | -32.89751 | -69.93213 | 29368 ft | 325 kts | 278° |
| 2026-04-26 01:56 | -32.89213 | -69.95778 | 28946 ft | 323 kts | 278° |
| 2026-04-26 01:56 | -32.88671 | -69.98358 | 28486 ft | 320 kts | 278° |
| 2026-04-26 01:57 | -32.88239 | -70.00926 | 27958 ft | 315 kts | 271° |
| 2026-04-26 01:57 | -32.88014 | -70.03522 | 27648 ft | 315 kts | 271° |
| 2026-04-26 01:57 | -32.87784 | -70.06110 | 27279 ft | 315 kts | 271° |
| 2026-04-26 01:57 | -32.87551 | -70.08694 | 26923 ft | 314 kts | 271° |
| 2026-04-26 01:58 | -32.87315 | -70.11266 | 26458 ft | 314 kts | 271° |
| 2026-04-26 01:58 | -32.87075 | -70.13845 | 26128 ft | 314 kts | 271° |
| 2026-04-26 01:58 | -32.86834 | -70.16423 | 25784 ft | 312 kts | 271° |
| 2026-04-26 01:58 | -32.86601 | -70.18943 | 25316 ft | 309 kts | 271° |
| 2026-04-26 01:59 | -32.86365 | -70.21483 | 24598 ft | 309 kts | 271° |
| 2026-04-26 01:59 | -32.86128 | -70.24027 | 23963 ft | 309 kts | 271° |
| 2026-04-26 01:59 | -32.85889 | -70.26563 | 23188 ft | 309 kts | 271° |
| 2026-04-26 01:59 | -32.85648 | -70.29096 | 22410 ft | 308 kts | 271° |
| 2026-04-26 02:00 | -32.85409 | -70.31624 | 21690 ft | 307 kts | 272° |
| 2026-04-26 02:00 | -32.85173 | -70.34142 | 21024 ft | 306 kts | 271° |
| 2026-04-26 02:00 | -32.84984 | -70.36209 | 20472 ft | 305 kts | 271° |
| 2026-04-26 02:00 | -32.84753 | -70.38716 | 19773 ft | 305 kts | 272° |
| 2026-04-26 02:01 | -32.84522 | -70.41216 | 19059 ft | 304 kts | 272° |
| 2026-04-26 02:01 | -32.84292 | -70.43715 | 18373 ft | 303 kts | 272° |
| 2026-04-26 02:01 | -32.84060 | -70.46204 | 17616 ft | 302 kts | 272° |
| 2026-04-26 02:01 | -32.83829 | -70.48680 | 16855 ft | 301 kts | 273° |
| 2026-04-26 02:02 | -32.83596 | -70.51153 | 16166 ft | 301 kts | 273° |
| 2026-04-26 02:02 | -32.83362 | -70.53621 | 15473 ft | 300 kts | 273° |
| 2026-04-26 02:02 | -32.83128 | -70.56084 | 14811 ft | 299 kts | 274° |
| 2026-04-26 02:02 | -32.82898 | -70.58501 | 14395 ft | 299 kts | 274° |
| 2026-04-26 02:03 | -32.82665 | -70.60954 | 14005 ft | 299 kts | 274° |
| 2026-04-26 02:03 | -32.82431 | -70.63410 | 13591 ft | 299 kts | 274° |
| 2026-04-26 02:03 | -32.82201 | -70.65863 | 13206 ft | 298 kts | 272° |
| 2026-04-26 02:03 | -32.82300 | -70.68297 | 12828 ft | 294 kts | 257° |
| 2026-04-26 02:04 | -32.82972 | -70.70569 | 12453 ft | 291 kts | 241° |
| 2026-04-26 02:04 | -32.84147 | -70.72515 | 12077 ft | 290 kts | 225° |
| 2026-04-26 02:04 | -32.85620 | -70.74150 | 11710 ft | 290 kts | 223° |
| 2026-04-26 02:04 | -32.87101 | -70.75777 | 11339 ft | 290 kts | 223° |
| 2026-04-26 02:05 | -32.88561 | -70.77387 | 10975 ft | 290 kts | 223° |
| 2026-04-26 02:05 | -32.90042 | -70.79023 | 10591 ft | 291 kts | 223° |
| 2026-04-26 02:05 | -32.91678 | -70.80437 | 10207 ft | 292 kts | 208° |
| 2026-04-26 02:05 | -32.93585 | -70.81318 | 9628 ft | 293 kts | 192° |
| 2026-04-26 02:06 | -32.95587 | -70.81661 | 9243 ft | 290 kts | 187° |
| 2026-04-26 02:06 | -32.97587 | -70.81953 | 8880 ft | 290 kts | 187° |
| 2026-04-26 02:06 | -32.99584 | -70.82251 | 8501 ft | 289 kts | 187° |
| 2026-04-26 02:06 | -33.01587 | -70.82330 | 8148 ft | 288 kts | 177° |
| 2026-04-26 02:07 | -33.03562 | -70.82227 | 7794 ft | 288 kts | 177° |
| 2026-04-26 02:07 | -33.05561 | -70.82121 | 7439 ft | 288 kts | 177° |
| 2026-04-26 02:07 | -33.07564 | -70.82009 | 7084 ft | 288 kts | 176° |
| 2026-04-26 02:07 | -33.09559 | -70.81889 | 6716 ft | 285 kts | 176° |
| 2026-04-26 02:08 | -33.11502 | -70.81751 | 6369 ft | 274 kts | 176° |
| 2026-04-26 02:08 | -33.13363 | -70.81643 | 6021 ft | 263 kts | 176° |
| 2026-04-26 02:08 | -33.15156 | -70.81549 | 5699 ft | 252 kts | 177° |
| 2026-04-26 02:08 | -33.16844 | -70.81460 | 5501 ft | 237 kts | 177° |
| 2026-04-26 02:09 | -33.18441 | -70.81375 | 5226 ft | 228 kts | 177° |
| 2026-04-26 02:09 | -33.19996 | -70.81292 | 4926 ft | 220 kts | 177° |
| 2026-04-26 02:09 | -33.21483 | -70.81213 | 4667 ft | 206 kts | 177° |
| 2026-04-26 02:09 | -33.22846 | -70.81140 | 4377 ft | 188 kts | 177° |
| 2026-04-26 02:10 | -33.24102 | -70.81073 | 4139 ft | 172 kts | 177° |
| 2026-04-26 02:10 | -33.25231 | -70.81013 | 3938 ft | 155 kts | 177° |
| 2026-04-26 02:10 | -33.26277 | -70.80957 | 3739 ft | 147 kts | 177° |
| 2026-04-26 02:10 | -33.27293 | -70.80902 | 3550 ft | 145 kts | 177° |
| 2026-04-26 02:11 | -33.28284 | -70.80849 | 3359 ft | 144 kts | 177° |
| 2026-04-26 02:11 | -33.29279 | -70.80796 | 3159 ft | 143 kts | 177° |
| 2026-04-26 02:11 | -33.30268 | -70.80743 | 2967 ft | 142 kts | 177° |
| 2026-04-26 02:11 | -33.31256 | -70.80690 | 2778 ft | 141 kts | 177° |
| 2026-04-26 02:12 | -33.32236 | -70.80637 | 2583 ft | 141 kts | 176° |
| 2026-04-26 02:12 | -33.33215 | -70.80584 | 2364 ft | 140 kts | 176° |
| 2026-04-26 02:12 | -33.34186 | -70.80542 | 2164 ft | 139 kts | 177° |
| 2026-04-26 02:12 | -33.35151 | -70.80499 | 2017 ft | 138 kts | 176° |
| 2026-04-26 02:13 | -33.36099 | -70.80441 | 1845 ft | 137 kts | 176° |
| 2026-04-26 02:13 | -33.37050 | -70.80382 | 1665 ft | 137 kts | 176° |
| 2026-04-26 02:13 | -33.37959 | -70.80330 | 1573 ft | 116 kts | 178° |
| 2026-04-26 02:13 | -33.38597 | -70.80298 | 1574 ft | 67 kts | 177° |
| 2026-04-26 02:14 | -33.38893 | -70.80281 | 1574 ft | 22 kts | 178° |
| 2026-04-26 02:14 | -33.39051 | -70.80275 | 1574 ft | 23 kts | 177° |
| 2026-04-26 02:14 | -33.39214 | -70.80254 | 1573 ft | 24 kts | 167° |
| 2026-04-26 02:14 | -33.39373 | -70.80168 | 1570 ft | 27 kts | 146° |
| 2026-04-26 02:15 | -33.39479 | -70.80084 | 1566 ft | 14 kts | 147° |
| 2026-04-26 02:15 | -33.39530 | -70.79976 | 1565 ft | 17 kts | 96° |
| 2026-04-26 02:15 | -33.39527 | -70.79827 | 1565 ft | 19 kts | 88° |
| 2026-04-26 02:15 | -33.39520 | -70.79657 | 1564 ft | 22 kts | 86° |
| 2026-04-26 02:16 | -33.39512 | -70.79470 | 1564 ft | 23 kts | 88° |
| 2026-04-26 02:16 | -33.39519 | -70.79380 | 1564 ft | 6 kts | 137° |
| 2026-04-26 02:16 | -33.39568 | -70.79374 | 1564 ft | 8 kts | 177° |
| 2026-04-26 02:16 | -33.39593 | -70.79373 | 1564 ft | 0 kts | 176° |